createdAt,value
2023-04-05T00:00:01.073Z,0.00
2023-04-05T00:01:00.888Z,0.00
2023-04-05T00:02:02.003Z,0.00
2023-04-05T00:03:01.027Z,0.00
2023-04-05T00:04:00.900Z,0.00
2023-04-05T00:05:00.852Z,0.00
2023-04-05T00:06:00.647Z,0.00
2023-04-05T00:07:00.809Z,0.00
2023-04-05T00:08:00.594Z,0.00
2023-04-05T00:09:00.506Z,0.00
2023-04-05T00:10:01.853Z,0.00
2023-04-05T00:11:00.410Z,0.00
2023-04-05T00:12:00.643Z,0.00
2023-04-05T00:13:00.309Z,0.00
2023-04-05T00:14:00.353Z,0.00
2023-04-05T00:15:00.237Z,0.00
2023-04-05T00:16:00.409Z,0.00
2023-04-05T00:17:00.110Z,0.00
2023-04-05T00:18:00.290Z,0.00
2023-04-05T00:19:00.014Z,0.00
2023-04-05T00:20:00.198Z,0.00
2023-04-05T00:20:59.949Z,0.00
2023-04-05T00:22:00.427Z,0.00
2023-04-05T00:23:00.005Z,0.00
2023-04-05T00:23:59.782Z,0.00
2023-04-05T00:25:00.027Z,0.00
2023-04-05T00:25:59.712Z,0.00
2023-04-05T00:26:59.739Z,0.00
2023-04-05T00:27:59.839Z,0.00
2023-04-05T00:28:59.527Z,0.00
2023-04-05T00:29:59.651Z,0.00
2023-04-05T00:30:59.426Z,0.00
2023-04-05T00:31:59.732Z,0.00
2023-04-05T00:32:59.417Z,0.00
2023-04-05T00:34:00.708Z,0.00
2023-04-05T00:34:59.236Z,0.00
2023-04-05T00:35:59.507Z,0.00
2023-04-05T00:36:59.136Z,0.00
2023-04-05T00:37:59.299Z,0.00
2023-04-05T00:38:59.039Z,0.00
2023-04-05T00:40:00.141Z,0.00
2023-04-05T00:40:59.187Z,0.00
2023-04-05T00:41:59.131Z,0.00
2023-04-05T00:42:58.845Z,0.00
2023-04-05T00:43:58.936Z,0.00
2023-04-05T00:44:58.745Z,0.00
2023-04-05T00:45:58.959Z,0.00
2023-04-05T00:46:58.648Z,0.00
2023-04-05T00:47:58.765Z,0.00
2023-04-05T00:48:58.554Z,0.00
2023-04-05T00:49:59.795Z,0.00
2023-04-05T00:50:59.597Z,0.00
2023-04-05T00:51:59.671Z,0.00
2023-04-05T00:52:58.592Z,0.00
2023-04-05T00:53:58.313Z,0.00
2023-04-05T00:54:58.406Z,0.00
2023-04-05T00:55:58.218Z,0.00
2023-04-05T00:56:58.193Z,0.00
2023-04-05T00:57:59.446Z,0.00
2023-04-05T00:58:58.090Z,0.00
2023-04-05T00:59:58.235Z,0.00
2023-04-05T01:00:57.999Z,0.00
2023-04-05T01:01:59.066Z,0.00
2023-04-05T01:02:59.084Z,0.00
2023-04-05T01:03:58.100Z,0.00
2023-04-05T01:04:58.068Z,0.00
2023-04-05T01:05:57.732Z,0.00
2023-04-05T01:06:57.888Z,0.00
2023-04-05T01:07:57.630Z,0.00
2023-04-05T01:08:57.578Z,0.00
2023-04-05T01:09:57.692Z,0.00
2023-04-05T01:10:57.484Z,0.00
2023-04-05T01:11:57.705Z,0.00
2023-04-05T01:12:57.389Z,0.00
2023-04-05T01:13:57.506Z,0.00
2023-04-05T01:14:57.618Z,0.00
2023-04-05T01:15:57.568Z,0.00
2023-04-05T01:16:57.192Z,0.00
2023-04-05T01:17:57.484Z,0.00
2023-04-05T01:18:57.101Z,0.00
2023-04-05T01:19:57.288Z,0.00
2023-04-05T01:20:56.997Z,0.00
2023-04-05T01:22:18.170Z,0.00
2023-04-05T01:22:56.909Z,0.00
2023-04-05T01:23:57.255Z,0.00
2023-04-05T01:24:56.801Z,0.00
2023-04-05T01:25:56.881Z,0.00
2023-04-05T01:26:56.724Z,0.00
2023-04-05T01:27:56.797Z,0.00
2023-04-05T01:28:56.612Z,0.00
2023-04-05T01:29:56.913Z,0.00
2023-04-05T01:30:56.536Z,0.00
2023-04-05T01:31:56.732Z,0.00
2023-04-05T01:32:56.449Z,0.00
2023-04-05T01:33:56.532Z,0.00
2023-04-05T01:34:56.332Z,0.00
2023-04-05T01:35:56.331Z,0.00
2023-04-05T01:36:56.354Z,0.00
2023-04-05T01:37:56.178Z,0.00
2023-04-05T01:38:56.134Z,0.00
2023-04-05T01:39:56.271Z,0.00
2023-04-05T01:40:56.044Z,0.00
2023-04-05T01:41:57.306Z,0.00
2023-04-05T01:42:55.938Z,0.00
2023-04-05T01:43:56.218Z,0.00
2023-04-05T01:44:55.844Z,0.00
2023-04-05T01:45:56.927Z,0.00
2023-04-05T01:46:55.764Z,0.00
2023-04-05T01:47:56.193Z,0.00
2023-04-05T01:48:55.654Z,0.00
2023-04-05T01:49:55.739Z,0.00
2023-04-05T01:50:55.567Z,0.00
2023-04-05T01:51:55.764Z,0.00
2023-04-05T01:52:55.455Z,0.00
2023-04-05T01:53:55.585Z,0.00
2023-04-05T01:54:55.364Z,0.00
2023-04-05T01:55:55.464Z,0.00
2023-04-05T01:56:55.261Z,0.00
2023-04-05T01:57:55.485Z,0.00
2023-04-05T01:58:55.192Z,0.00
2023-04-05T01:59:55.502Z,0.00
2023-04-05T02:00:55.089Z,0.00
2023-04-05T02:01:56.747Z,0.00
2023-04-05T02:02:55.057Z,0.00
2023-04-05T02:03:55.270Z,0.00
2023-04-05T02:04:54.876Z,0.00
2023-04-05T02:05:55.131Z,0.00
2023-04-05T02:06:54.788Z,0.00
2023-04-05T02:07:55.962Z,0.00
2023-04-05T02:08:54.707Z,0.00
2023-04-05T02:09:54.855Z,0.00
2023-04-05T02:10:54.590Z,0.00
2023-04-05T02:11:54.582Z,0.00
2023-04-05T02:12:54.671Z,0.00
2023-04-05T02:13:54.446Z,0.00
2023-04-05T02:14:54.589Z,0.00
2023-04-05T02:15:54.401Z,0.00
2023-04-05T02:16:55.621Z,0.00
2023-04-05T02:17:54.424Z,0.00
2023-04-05T02:18:54.512Z,0.00
2023-04-05T02:19:54.161Z,0.00
2023-04-05T02:20:54.232Z,0.00
2023-04-05T02:21:54.063Z,0.00
2023-04-05T02:22:54.266Z,0.00
2023-04-05T02:23:53.960Z,0.00
2023-04-05T02:24:54.152Z,0.00
2023-04-05T02:25:53.869Z,0.00
2023-04-05T02:26:53.963Z,0.00
2023-04-05T02:27:53.982Z,0.00
2023-04-05T02:28:53.779Z,0.00
2023-04-05T02:29:53.819Z,0.00
2023-04-05T02:30:53.779Z,0.00
2023-04-05T02:31:53.856Z,0.00
2023-04-05T02:32:53.570Z,0.00
2023-04-05T02:33:53.599Z,0.00
2023-04-05T02:34:53.429Z,0.00
2023-04-05T02:35:53.702Z,0.00
2023-04-05T02:36:53.335Z,0.00
2023-04-05T02:37:53.486Z,0.00
2023-04-05T02:38:53.241Z,0.00
2023-04-05T02:39:53.230Z,0.00
2023-04-05T02:40:53.154Z,0.00
2023-04-05T02:41:53.159Z,0.00
2023-04-05T02:42:53.049Z,0.00
2023-04-05T02:43:53.173Z,0.00
2023-04-05T02:44:52.958Z,0.00
2023-04-05T02:45:52.994Z,0.00
2023-04-05T02:46:52.860Z,0.00
2023-04-05T02:47:53.012Z,0.00
2023-04-05T02:48:52.758Z,0.00
2023-04-05T02:49:53.868Z,0.00
2023-04-05T02:50:52.660Z,0.00
2023-04-05T02:51:54.650Z,0.00
2023-04-05T02:52:52.606Z,0.00
2023-04-05T02:53:53.550Z,0.00
2023-04-05T02:54:52.465Z,0.00
2023-04-05T02:55:52.421Z,0.00
2023-04-05T02:56:52.418Z,0.00
2023-04-05T02:57:53.366Z,0.00
2023-04-05T02:58:52.530Z,0.00
2023-04-05T02:59:52.250Z,0.00
2023-04-05T03:00:52.204Z,0.00
2023-04-05T03:01:52.132Z,0.00
2023-04-05T03:02:52.194Z,0.00
2023-04-05T03:03:53.250Z,0.00
2023-04-05T03:04:52.015Z,0.00
2023-04-05T03:05:52.102Z,0.00
2023-04-05T03:06:51.886Z,0.00
2023-04-05T03:07:51.842Z,0.00
2023-04-05T03:08:51.788Z,0.00
2023-04-05T03:09:51.812Z,0.00
2023-04-05T03:10:51.780Z,0.00
2023-04-05T03:11:51.726Z,0.00
2023-04-05T03:12:51.635Z,0.00
2023-04-05T03:13:51.555Z,0.00
2023-04-05T03:14:51.503Z,0.00
2023-04-05T03:15:51.553Z,0.00
2023-04-05T03:16:51.474Z,0.00
2023-04-05T03:17:51.580Z,0.00
2023-04-05T03:18:51.310Z,0.00
2023-04-05T03:19:51.253Z,0.00
2023-04-05T03:20:51.269Z,0.00
2023-04-05T03:21:51.389Z,0.00
2023-04-05T03:22:51.546Z,0.00
2023-04-05T03:23:51.199Z,0.00
2023-04-05T03:24:51.030Z,0.00
2023-04-05T03:25:50.969Z,0.00
2023-04-05T03:26:50.918Z,0.00
2023-04-05T03:27:50.890Z,0.00
2023-04-05T03:28:51.239Z,0.00
2023-04-05T03:29:50.781Z,0.00
2023-04-05T03:30:50.843Z,0.00
2023-04-05T03:31:50.825Z,0.00
2023-04-05T03:32:50.677Z,0.00
2023-04-05T03:33:50.665Z,0.00
2023-04-05T03:34:50.566Z,0.00
2023-04-05T03:35:50.683Z,0.00
2023-04-05T03:36:50.457Z,0.00
2023-04-05T03:37:50.392Z,0.00
2023-04-05T03:38:50.362Z,0.00
2023-04-05T03:39:50.508Z,0.00
2023-04-05T03:40:50.470Z,0.00
2023-04-05T03:41:50.415Z,0.00
2023-04-05T03:42:50.153Z,0.00
2023-04-05T03:43:50.104Z,0.00
2023-04-05T03:44:50.226Z,0.00
2023-04-05T03:45:50.067Z,0.00
2023-04-05T03:46:50.045Z,0.00
2023-04-05T03:47:50.150Z,0.00
2023-04-05T03:48:51.093Z,0.00
2023-04-05T03:49:49.832Z,0.00
2023-04-05T03:50:49.965Z,0.00
2023-04-05T03:51:49.723Z,0.00
2023-04-05T03:52:49.783Z,0.00
2023-04-05T03:53:49.619Z,0.00
2023-04-05T03:54:51.636Z,0.00
2023-04-05T03:55:49.603Z,0.00
2023-04-05T03:56:49.703Z,0.00
2023-04-05T03:57:49.429Z,0.00
2023-04-05T03:58:50.747Z,0.00
2023-04-05T03:59:49.350Z,0.00
2023-04-05T04:00:49.537Z,0.00
2023-04-05T04:01:49.268Z,0.00
2023-04-05T04:02:49.359Z,0.00
2023-04-05T04:03:49.136Z,0.00
2023-04-05T04:04:49.589Z,0.00
2023-04-05T04:05:49.074Z,0.00
2023-04-05T04:06:49.159Z,0.00
2023-04-05T04:07:48.957Z,0.00
2023-04-05T04:08:48.967Z,0.00
2023-04-05T04:09:48.841Z,0.00
2023-04-05T04:10:48.973Z,0.00
2023-04-05T04:11:49.811Z,0.00
2023-04-05T04:12:48.699Z,0.00
2023-04-05T04:13:48.645Z,0.00
2023-04-05T04:14:49.730Z,0.00
2023-04-05T04:15:48.554Z,0.00
2023-04-05T04:16:48.862Z,0.00
2023-04-05T04:17:48.524Z,0.00
2023-04-05T04:18:48.633Z,0.00
2023-04-05T04:19:48.354Z,0.00
2023-04-05T04:20:48.442Z,0.00
2023-04-05T04:21:48.270Z,0.00
2023-04-05T04:22:48.243Z,0.00
2023-04-05T04:23:48.470Z,0.00
2023-04-05T04:24:48.163Z,0.00
2023-04-05T04:25:48.278Z,0.00
2023-04-05T04:26:48.031Z,0.00
2023-04-05T04:27:48.096Z,0.00
2023-04-05T04:28:47.922Z,0.00
2023-04-05T04:29:48.026Z,0.00
2023-04-05T04:30:48.058Z,4.00
2023-04-05T04:31:48.051Z,4.00
2023-04-05T04:32:47.847Z,0.00
2023-04-05T04:33:47.927Z,4.00
2023-04-05T04:34:47.638Z,8.00
2023-04-05T04:35:47.753Z,8.00
2023-04-05T04:36:47.690Z,8.00
2023-04-05T04:37:47.673Z,8.00
2023-04-05T04:38:47.433Z,12.00
2023-04-05T04:39:47.451Z,12.00
2023-04-05T04:40:47.378Z,16.00
2023-04-05T04:41:47.468Z,20.00
2023-04-05T04:42:47.273Z,24.00
2023-04-05T04:43:47.282Z,28.00
2023-04-05T04:44:47.238Z,36.00
2023-04-05T04:45:48.528Z,40.00
2023-04-05T04:46:47.037Z,48.00
2023-04-05T04:47:47.191Z,60.00
2023-04-05T04:48:46.941Z,68.00
2023-04-05T04:49:47.123Z,80.00
2023-04-05T04:50:46.872Z,92.00
2023-04-05T04:51:47.031Z,112.00
2023-04-05T04:52:46.750Z,128.00
2023-04-05T04:53:48.155Z,148.00
2023-04-05T04:54:46.856Z,168.00
2023-04-05T04:55:46.603Z,196.00
2023-04-05T04:56:46.758Z,220.00
2023-04-05T04:57:46.504Z,248.00
2023-04-05T04:58:46.662Z,276.00
2023-04-05T04:59:46.425Z,312.00
2023-04-05T05:00:46.381Z,348.00
2023-04-05T05:01:46.302Z,388.00
2023-04-05T05:02:47.755Z,428.00
2023-04-05T05:03:46.236Z,472.00
2023-04-05T05:04:46.324Z,516.00
2023-04-05T05:05:46.118Z,564.00
2023-04-05T05:06:46.063Z,612.00
2023-04-05T05:07:46.022Z,672.00
2023-04-05T05:08:47.168Z,728.00
2023-04-05T05:09:45.922Z,780.00
2023-04-05T05:10:45.946Z,836.00
2023-04-05T05:11:45.813Z,892.00
2023-04-05T05:12:45.794Z,956.00
2023-04-05T05:13:48.546Z,1020.00
2023-04-05T05:14:47.116Z,1092.00
2023-04-05T05:15:45.624Z,1164.00
2023-04-05T05:16:45.723Z,1232.00
2023-04-05T05:17:45.613Z,1296.00
2023-04-05T05:18:45.476Z,1364.00
2023-04-05T05:19:45.423Z,1436.00
2023-04-05T05:20:45.615Z,1508.00
2023-04-05T05:21:46.497Z,1576.00
2023-04-05T05:22:46.473Z,1648.00
2023-04-05T05:23:45.235Z,1732.00
2023-04-05T05:24:45.186Z,1824.00
2023-04-05T05:25:45.136Z,1904.00
2023-04-05T05:26:45.353Z,1980.00
2023-04-05T05:27:45.039Z,2064.00
2023-04-05T05:28:45.361Z,2144.00
2023-04-05T05:29:44.938Z,2228.00
2023-04-05T05:30:45.028Z,2300.00
2023-04-05T05:31:47.030Z,2364.00
2023-04-05T05:32:44.812Z,2420.00
2023-04-05T05:33:44.998Z,2476.00
2023-04-05T05:34:44.690Z,2528.00
2023-04-05T05:35:46.879Z,2572.00
2023-04-05T05:36:44.810Z,2612.00
2023-04-05T05:37:44.542Z,2656.00
2023-04-05T05:38:44.737Z,2696.00
2023-04-05T05:39:44.491Z,2724.00
2023-04-05T05:40:44.633Z,2748.00
2023-04-05T05:41:44.341Z,2780.00
2023-04-05T05:42:44.295Z,2804.00
2023-04-05T05:43:44.258Z,2836.00
2023-04-05T05:44:44.356Z,2868.00
2023-04-05T05:45:44.424Z,2900.00
2023-04-05T05:46:44.198Z,2936.00
2023-04-05T05:47:44.091Z,2976.00
2023-04-05T05:48:44.001Z,3000.00
2023-04-05T05:49:43.952Z,3028.00
2023-04-05T05:50:45.116Z,3056.00
2023-04-05T05:51:43.891Z,3072.00
2023-04-05T05:52:43.910Z,3084.00
2023-04-05T05:53:43.755Z,3092.00
2023-04-05T05:54:43.711Z,3112.00
2023-04-05T05:55:43.668Z,3140.00
2023-04-05T05:56:43.733Z,3172.00
2023-04-05T05:57:43.581Z,3244.00
2023-04-05T05:58:43.942Z,3304.00
2023-04-05T05:59:43.460Z,3324.00
2023-04-05T06:03:48.942Z,3636.00
2023-04-05T06:04:47.398Z,3676.00
2023-04-05T06:05:47.477Z,3720.00
2023-04-05T06:06:47.489Z,3772.00
2023-04-05T06:07:47.251Z,3820.00
2023-04-05T06:08:48.318Z,3872.00
2023-04-05T06:09:47.122Z,3924.00
2023-04-05T06:10:47.307Z,3968.00
2023-04-05T06:11:55.982Z,4020.00
2023-04-05T06:12:47.285Z,4056.00
2023-04-05T06:13:47.030Z,4084.00
2023-04-05T06:14:46.901Z,4136.00
2023-04-05T06:15:47.040Z,4208.00
2023-04-05T06:16:46.902Z,4312.00
2023-04-05T06:17:48.007Z,4396.00
2023-04-05T06:18:46.677Z,4440.00
2023-04-05T06:19:46.628Z,4476.00
2023-04-05T06:20:46.772Z,4492.00
2023-04-05T06:21:46.529Z,4508.00
2023-04-05T06:22:46.596Z,4536.00
2023-04-05T06:23:46.442Z,4572.00
2023-04-05T06:24:46.496Z,4588.00
2023-04-05T06:25:46.536Z,4560.00
2023-04-05T06:26:48.352Z,4452.00
2023-04-05T06:27:46.468Z,4384.00
2023-04-05T06:28:46.420Z,4344.00
2023-04-05T06:29:46.287Z,4368.00
2023-04-05T06:30:46.228Z,4440.00
2023-04-05T06:31:46.290Z,4556.00
2023-04-05T06:32:45.999Z,4652.00
2023-04-05T06:33:46.157Z,4728.00
2023-04-05T06:34:45.890Z,4732.00
2023-04-05T06:35:47.126Z,4728.00
2023-04-05T06:36:45.793Z,4716.00
2023-04-05T06:37:45.919Z,4704.00
2023-04-05T06:38:45.879Z,4784.00
2023-04-05T06:39:45.649Z,4924.00
2023-04-05T06:40:45.683Z,5076.00
2023-04-05T06:41:45.556Z,5120.00
2023-04-05T06:43:06.796Z,5220.00
2023-04-05T06:43:45.449Z,5352.00
2023-04-05T06:44:46.536Z,5444.00
2023-04-05T06:45:45.361Z,5596.00
2023-04-05T06:46:45.524Z,5732.00
2023-04-05T06:47:45.292Z,6024.00
2023-04-05T06:48:45.450Z,6208.00
2023-04-05T06:49:45.347Z,6312.00
2023-04-05T06:50:45.109Z,6696.00
2023-04-05T06:52:06.149Z,7080.00
2023-04-05T06:52:45.342Z,7428.00
2023-04-05T06:53:45.067Z,7592.00
2023-04-05T06:54:44.917Z,7624.00
2023-04-05T06:55:46.102Z,7788.00
2023-04-05T06:56:44.820Z,7936.00
2023-04-05T06:57:45.914Z,8064.00
2023-04-05T06:58:44.768Z,8132.00
2023-04-05T06:59:44.804Z,8004.00
2023-04-05T07:00:44.630Z,8148.00
2023-04-05T07:01:44.868Z,8212.00
2023-04-05T07:02:44.566Z,8192.00
2023-04-05T07:03:45.650Z,8200.00
2023-04-05T07:04:46.695Z,8184.00
2023-04-05T07:05:44.536Z,8168.00
2023-04-05T07:06:44.338Z,8164.00
2023-04-05T07:07:44.559Z,8056.00
2023-04-05T07:08:44.263Z,8060.00
2023-04-05T07:09:45.401Z,8104.00
2023-04-05T07:10:44.153Z,7964.00
2023-04-05T07:11:45.605Z,7688.00
2023-04-05T07:12:44.149Z,7444.00
2023-04-05T07:13:44.185Z,7360.00
2023-04-05T07:14:43.980Z,7300.00
2023-04-05T07:15:45.042Z,7420.00
2023-04-05T07:16:43.856Z,7552.00
2023-04-05T07:17:44.122Z,7724.00
2023-04-05T07:18:46.230Z,7996.00
2023-04-05T07:19:45.999Z,7972.00
2023-04-05T07:20:43.737Z,7884.00
2023-04-05T07:21:43.731Z,7860.00
2023-04-05T07:22:43.617Z,7912.00
2023-04-05T07:23:44.782Z,7988.00
2023-04-05T07:24:43.478Z,8080.00
2023-04-05T07:25:44.587Z,8200.00
2023-04-05T07:26:43.382Z,8308.00
2023-04-05T07:27:43.583Z,8404.00
2023-04-05T07:28:43.425Z,8440.00
2023-04-05T07:29:43.384Z,8352.00
2023-04-05T07:30:43.317Z,8244.00
2023-04-05T07:31:43.271Z,8136.00
2023-04-05T07:32:43.113Z,8140.00
2023-04-05T07:33:44.183Z,8232.00
2023-04-05T07:34:43.025Z,8256.00
2023-04-05T07:35:43.141Z,8328.00
2023-04-05T07:36:42.923Z,8512.00
2023-04-05T07:37:42.862Z,8684.00
2023-04-05T07:38:42.811Z,8788.00
2023-04-05T07:39:42.944Z,8664.00
2023-04-05T07:40:43.168Z,8556.00
2023-04-05T07:41:43.389Z,8416.00
2023-04-05T07:42:42.620Z,8192.00
2023-04-05T07:43:42.583Z,7864.00
2023-04-05T07:44:42.646Z,7764.00
2023-04-05T07:45:42.588Z,7812.00
2023-04-05T07:46:42.471Z,7832.00
2023-04-05T07:47:43.672Z,7860.00
2023-04-05T07:48:42.345Z,7600.00
2023-04-05T07:49:42.305Z,7548.00
2023-04-05T07:50:42.775Z,7688.00
2023-04-05T07:51:43.443Z,7876.00
2023-04-05T07:52:42.173Z,8000.00
2023-04-05T07:53:42.330Z,8028.00
2023-04-05T07:54:42.088Z,8064.00
2023-04-05T07:55:42.005Z,8076.00
2023-04-05T07:56:41.974Z,8028.00
2023-04-05T07:57:42.056Z,7936.00
2023-04-05T07:58:41.868Z,7832.00
2023-04-05T07:59:42.351Z,7744.00
2023-04-05T08:00:41.983Z,7640.00
2023-04-05T08:01:41.726Z,7516.00
2023-04-05T08:02:41.775Z,7540.00
2023-04-05T08:03:41.958Z,7604.00
2023-04-05T08:04:41.608Z,7640.00
2023-04-05T08:05:41.748Z,7656.00
2023-04-05T08:06:41.605Z,7652.00
2023-04-05T08:07:41.619Z,7560.00
2023-04-05T08:08:41.410Z,7492.00
2023-04-05T08:09:41.638Z,7480.00
2023-04-05T08:10:41.504Z,7560.00
2023-04-05T08:11:41.659Z,7644.00
2023-04-05T08:12:41.214Z,7688.00
2023-04-05T08:13:41.159Z,7704.00
2023-04-05T08:14:41.121Z,7700.00
2023-04-05T08:15:41.168Z,7672.00
2023-04-05T08:16:41.269Z,7656.00
2023-04-05T08:17:41.205Z,7704.00
2023-04-05T08:18:40.919Z,7744.00
2023-04-05T08:19:41.107Z,7772.00
2023-04-05T08:20:40.963Z,7784.00
2023-04-05T08:21:40.896Z,7812.00
2023-04-05T08:22:40.968Z,7848.00
2023-04-05T08:23:40.908Z,7896.00
2023-04-05T08:24:40.768Z,7956.00
2023-04-05T08:25:42.545Z,8016.00
2023-04-05T08:26:40.545Z,8100.00
2023-04-05T08:27:40.740Z,8176.00
2023-04-05T08:28:40.529Z,8316.00
2023-04-05T08:29:40.543Z,8476.00
2023-04-05T08:30:40.564Z,8700.00
2023-04-05T08:31:40.604Z,8996.00
2023-04-05T08:32:40.292Z,9348.00
2023-04-05T08:33:40.239Z,9724.00
2023-04-05T08:34:40.584Z,10088.00
2023-04-05T08:35:40.144Z,10516.00
2023-04-05T08:37:02.302Z,26304.00
2023-04-05T08:37:40.032Z,46304.00
2023-04-05T08:38:39.981Z,51936.00
2023-04-05T08:39:40.118Z,50880.00
2023-04-05T08:40:40.166Z,39392.00
2023-04-05T08:41:40.944Z,48288.00
2023-04-05T08:42:39.788Z,62816.00
2023-04-05T08:43:39.939Z,61088.00
2023-04-05T08:44:39.700Z,61312.00
2023-04-05T08:46:01.076Z,62016.00
2023-04-05T08:46:39.642Z,64928.00
2023-04-05T08:48:01.756Z,66944.00
2023-04-05T08:48:40.545Z,59968.00
2023-04-05T08:49:39.811Z,67168.00
2023-04-05T08:50:39.722Z,62592.00
2023-04-05T08:51:39.421Z,63712.00
2023-04-05T08:52:39.702Z,71680.00
2023-04-05T08:53:39.304Z,68768.00
2023-04-05T08:54:40.436Z,63168.00
2023-04-05T08:55:39.219Z,64960.00
2023-04-05T08:56:39.178Z,68640.00
2023-04-05T08:57:39.185Z,65440.00
2023-04-05T08:58:40.354Z,63392.00
2023-04-05T08:59:39.106Z,68480.00
2023-04-05T09:00:39.317Z,66976.00
2023-04-05T09:01:39.028Z,60992.00
2023-04-05T09:02:39.068Z,66688.00
2023-04-05T09:03:39.334Z,68192.00
2023-04-05T09:04:38.969Z,69376.00
2023-04-05T09:05:38.812Z,66528.00
2023-04-05T09:06:38.989Z,60384.00
2023-04-05T09:07:38.723Z,54816.00
2023-04-05T09:08:39.932Z,55328.00
2023-04-05T09:09:38.653Z,56352.00
2023-04-05T09:10:40.000Z,58528.00
2023-04-05T09:11:39.805Z,59328.00
2023-04-05T09:12:40.771Z,58080.00
2023-04-05T09:13:38.486Z,63072.00
2023-04-05T09:14:38.653Z,63936.00
2023-04-05T09:15:38.404Z,61024.00
2023-04-05T09:16:38.725Z,66688.00
2023-04-05T09:17:38.372Z,65024.00
2023-04-05T09:18:39.488Z,70944.00
2023-04-05T09:19:38.259Z,72160.00
2023-04-05T09:20:38.515Z,70528.00
2023-04-05T09:21:38.174Z,82560.00
2023-04-05T09:22:59.589Z,84096.00
2023-04-05T09:23:38.118Z,80512.00
2023-04-05T09:24:39.344Z,80672.00
2023-04-05T09:25:38.020Z,75648.00
2023-04-05T09:26:38.111Z,73760.00
2023-04-05T09:27:37.949Z,82688.00
2023-04-05T09:28:38.160Z,90112.00
2023-04-05T09:29:37.878Z,87232.00
2023-04-05T09:30:38.157Z,89088.00
2023-04-05T09:31:37.820Z,93984.00
2023-04-05T09:32:38.048Z,95840.00
2023-04-05T09:33:37.720Z,80768.00
2023-04-05T09:34:37.986Z,78016.00
2023-04-05T09:35:37.680Z,100896.00
2023-04-05T09:36:37.770Z,86976.00
2023-04-05T09:37:37.581Z,77888.00
2023-04-05T09:38:37.795Z,96576.00
2023-04-05T09:39:39.029Z,87648.00
2023-04-05T09:40:37.464Z,80800.00
2023-04-05T09:41:39.549Z,97504.00
2023-04-05T09:42:37.392Z,82080.00
2023-04-05T09:43:37.515Z,69472.00
2023-04-05T09:44:39.655Z,96384.00
2023-04-05T09:45:37.460Z,88928.00
2023-04-05T09:46:37.991Z,70880.00
2023-04-05T09:47:37.294Z,88992.00
2023-04-05T09:48:37.349Z,88928.00
2023-04-05T09:49:37.143Z,85856.00
2023-04-05T09:50:38.472Z,81984.00
2023-04-05T09:51:37.274Z,76768.00
2023-04-05T09:52:37.274Z,87584.00
2023-04-05T09:53:36.990Z,100800.00
2023-04-05T09:54:37.078Z,88672.00
2023-04-05T09:55:36.923Z,72096.00
2023-04-05T09:56:37.272Z,102112.00
2023-04-05T09:57:37.156Z,105696.00
2023-04-05T09:58:37.003Z,78336.00
2023-04-05T09:59:36.821Z,84832.00
2023-04-05T10:00:37.024Z,94656.00
2023-04-05T10:01:37.647Z,79936.00
2023-04-05T10:02:36.984Z,71552.00
2023-04-05T10:03:36.730Z,89568.00
2023-04-05T10:04:36.760Z,96640.00
2023-04-05T10:05:36.571Z,79776.00
2023-04-05T10:06:36.702Z,78208.00
2023-04-05T10:07:36.509Z,88960.00
2023-04-05T10:08:37.591Z,86112.00
2023-04-05T10:09:36.462Z,83648.00
2023-04-05T10:10:36.551Z,77600.00
2023-04-05T10:11:36.494Z,81504.00
2023-04-05T10:12:36.324Z,92448.00
2023-04-05T10:13:37.423Z,81856.00
2023-04-05T10:14:36.267Z,75360.00
2023-04-05T10:15:36.414Z,88096.00
2023-04-05T10:16:36.245Z,92224.00
2023-04-05T10:17:38.481Z,98240.00
2023-04-05T10:18:36.118Z,103104.00
2023-04-05T10:19:37.266Z,92864.00
2023-04-05T10:20:36.065Z,88448.00
2023-04-05T10:21:36.050Z,91584.00
2023-04-05T10:22:36.011Z,82208.00
2023-04-05T10:23:36.058Z,90816.00
2023-04-05T10:24:35.916Z,106144.00
2023-04-05T10:25:36.088Z,85568.00
2023-04-05T10:26:35.850Z,76896.00
2023-04-05T10:27:35.897Z,100544.00
2023-04-05T10:28:35.880Z,111200.00
2023-04-05T10:29:35.903Z,97024.00
2023-04-05T10:30:35.714Z,85184.00
2023-04-05T10:31:38.384Z,98208.00
2023-04-05T10:32:35.805Z,100320.00
2023-04-05T10:33:37.461Z,89312.00
2023-04-05T10:34:35.666Z,99968.00
2023-04-05T10:35:35.839Z,109568.00
2023-04-05T10:36:35.590Z,93504.00
2023-04-05T10:37:35.659Z,95200.00
2023-04-05T10:38:35.493Z,97728.00
2023-04-05T10:39:36.484Z,98912.00
2023-04-05T10:40:35.587Z,101120.00
2023-04-05T10:41:35.515Z,95808.00
2023-04-05T10:42:37.427Z,104640.00
2023-04-05T10:43:35.286Z,91040.00
2023-04-05T10:44:35.412Z,87872.00
2023-04-05T10:45:35.861Z,108640.00
2023-04-05T10:46:35.420Z,117984.00
2023-04-05T10:47:37.746Z,99904.00
2023-04-05T10:48:35.103Z,89376.00
2023-04-05T10:49:36.277Z,92896.00
2023-04-05T10:50:35.053Z,103136.00
2023-04-05T10:51:35.043Z,102144.00
2023-04-05T10:52:35.094Z,93088.00
2023-04-05T10:53:35.014Z,84896.00
2023-04-05T10:54:36.081Z,90112.00
2023-04-05T10:55:34.860Z,108416.00
2023-04-05T10:56:58.013Z,109280.00
2023-04-05T10:57:34.791Z,99872.00
2023-04-05T10:58:34.820Z,101088.00
2023-04-05T10:59:34.773Z,103488.00
2023-04-05T11:00:34.795Z,92672.00
2023-04-05T11:01:34.958Z,106432.00
2023-04-05T11:02:35.855Z,111840.00
2023-04-05T11:03:34.718Z,88672.00
2023-04-05T11:04:34.590Z,96320.00
2023-04-05T11:05:35.730Z,125472.00
2023-04-05T11:06:34.636Z,123360.00
2023-04-05T11:07:34.499Z,88448.00
2023-04-05T11:08:35.476Z,95360.00
2023-04-05T11:09:34.401Z,120704.00
2023-04-05T11:10:34.523Z,119840.00
2023-04-05T11:11:34.341Z,100512.00
2023-04-05T11:12:34.476Z,98400.00
2023-04-05T11:13:34.273Z,104064.00
2023-04-05T11:14:35.330Z,108064.00
2023-04-05T11:15:34.251Z,109888.00
2023-04-05T11:16:34.199Z,105920.00
2023-04-05T11:17:34.219Z,98208.00
2023-04-05T11:18:34.319Z,94624.00
2023-04-05T11:19:34.080Z,100928.00
2023-04-05T11:20:34.130Z,106976.00
2023-04-05T11:21:34.029Z,106624.00
2023-04-05T11:22:33.978Z,111008.00
2023-04-05T11:23:33.966Z,111296.00
2023-04-05T11:24:34.639Z,119872.00
2023-04-05T11:25:33.877Z,119904.00
2023-04-05T11:26:33.962Z,113280.00
2023-04-05T11:27:33.815Z,105152.00
2023-04-05T11:28:33.811Z,107200.00
2023-04-05T11:29:33.751Z,118560.00
2023-04-05T11:30:33.791Z,118016.00
2023-04-05T11:31:33.722Z,94016.00
2023-04-05T11:32:55.026Z,83104.00
2023-04-05T11:33:33.616Z,106976.00
2023-04-05T11:34:33.826Z,124736.00
2023-04-05T11:35:33.574Z,112864.00
2023-04-05T11:36:35.688Z,90816.00
2023-04-05T11:37:33.486Z,101472.00
2023-04-05T11:38:34.785Z,127264.00
2023-04-05T11:39:33.429Z,124352.00
2023-04-05T11:40:33.458Z,106368.00
2023-04-05T11:41:33.361Z,104576.00
2023-04-05T11:42:33.370Z,115488.00
2023-04-05T11:43:33.293Z,121792.00
2023-04-05T11:44:33.289Z,112224.00
2023-04-05T11:45:34.416Z,101600.00
2023-04-05T11:46:33.259Z,109536.00
2023-04-05T11:47:33.442Z,116704.00
2023-04-05T11:48:33.131Z,107392.00
2023-04-05T11:49:35.266Z,99808.00
2023-04-05T11:50:35.325Z,105056.00
2023-04-05T11:51:33.240Z,121792.00
2023-04-05T11:52:33.008Z,100480.00
2023-04-05T11:53:34.170Z,94208.00
2023-04-05T11:54:32.938Z,98880.00
2023-04-05T11:55:33.065Z,105088.00
2023-04-05T11:56:32.907Z,109280.00
2023-04-05T11:57:33.079Z,113696.00
2023-04-05T11:58:32.809Z,107136.00
2023-04-05T11:59:33.018Z,96736.00
2023-04-05T12:00:32.747Z,97376.00
2023-04-05T12:01:32.793Z,115296.00
2023-04-05T12:02:34.015Z,125312.00
2023-04-05T12:03:32.766Z,105536.00
2023-04-05T12:04:32.638Z,83232.00
2023-04-05T12:05:32.592Z,104864.00
2023-04-05T12:06:32.727Z,117280.00
2023-04-05T12:07:32.551Z,110976.00
2023-04-05T12:08:32.513Z,103264.00
2023-04-05T12:09:33.668Z,99360.00
2023-04-05T12:10:32.425Z,93952.00
2023-04-05T12:11:32.401Z,91872.00
2023-04-05T12:12:33.537Z,104256.00
2023-04-05T12:13:32.469Z,111168.00
2023-04-05T12:14:32.305Z,101344.00
2023-04-05T12:15:32.292Z,92448.00
2023-04-05T12:16:33.345Z,99072.00
2023-04-05T12:17:32.219Z,109440.00
2023-04-05T12:18:32.303Z,113440.00
2023-04-05T12:19:32.131Z,115520.00
2023-04-05T12:20:33.236Z,110880.00
2023-04-05T12:21:32.170Z,104672.00
2023-04-05T12:22:32.130Z,99840.00
2023-04-05T12:23:32.003Z,99936.00
2023-04-05T12:24:32.142Z,101504.00
2023-04-05T12:25:31.938Z,110176.00